AEST,Max TemperatureF,Mean TemperatureF,Min TemperatureF,Max Dew PointF,MeanDew PointF,Min DewpointF,Max Humidity, Mean Humidity, Min Humidity, Max Sea Level PressureIn, Mean Sea Level PressureIn, Min Sea Level PressureIn, Max VisibilityMiles, Mean VisibilityMiles, Min VisibilityMiles, Max Wind SpeedMPH, Mean Wind SpeedMPH, Max Gust SpeedMPH,PrecipitationIn, CloudCover, Events, WindDirDegrees
2013-11-1,83,78,74,72,69,67,93,76,55,30.04,29.99,29.92,,,,34,17,37,0.08,,,84
2013-11-2,81,76,71,68,65,61,88,66,48,30.06,30.03,30.00,,,,29,25,31,0.01,,,115
2013-11-3,80,76,73,63,61,59,69,58,41,30.07,30.03,29.98,,,,25,21,,0.00,,,118
2013-11-4,82,76,71,68,65,63,83,67,51,30.04,29.99,29.95,,,,16,10,,0.00,,,93
2013-11-5,82,77,72,72,68,66,94,72,55,30.08,30.03,29.97,,,,32,17,38,0.08,,,99
2013-11-6,78,76,73,70,64,61,83,65,47,30.09,30.03,29.98,,,,32,28,,0.00,,,108
2013-11-7,81,77,73,66,63,60,73,63,42,30.04,29.98,29.92,,,,26,20,,0.00,,,108
2013-11-8,82,78,73,66,62,57,73,60,46,30.01,29.95,29.89,,,,21,18,,0.00,,,109
2013-11-9,82,76,71,63,59,55,65,53,37,29.99,29.93,29.86,,,,17,12,,0.00,,,93
2013-11-10,82,76,71,64,62,59,78,62,41,29.93,29.87,29.83,,,,21,8,,0.00,,,64
2013-11-11,81,76,72,70,69,64,83,74,61,29.93,29.88,29.83,,,,22,8,,0.00,,,95
2013-11-12,82,78,74,70,68,66,83,70,54,29.95,29.90,29.86,,,,21,12,,0.00,,,68
2013-11-13,82,78,75,70,68,66,78,71,58,29.98,29.92,29.86,,,,16,11,,0.00,,,91
2013-11-14,82,78,75,73,71,68,89,77,56,29.95,29.89,29.83,,,,18,8,,0.00,,,62
2013-11-15,84,80,75,73,72,70,94,79,65,29.92,29.87,29.80,,,,18,11,,0.02,,,28
2013-11-16,86,77,68,72,71,64,100,79,54,29.92,29.83,29.74,,,,31,9,40,2.20,,,20
2013-11-17,82,74,67,73,70,66,94,82,64,29.89,29.81,29.74,,,,20,8,,0.28,,,19
2013-11-18,82,77,72,73,72,70,94,83,66,29.89,29.82,29.77,,,,17,8,,0.12,,,97
2013-11-19,86,79,72,75,71,68,94,80,64,29.86,29.82,29.77,,,,20,10,,0.08,,,316
2013-11-20,84,80,76,75,71,64,89,76,56,29.86,29.80,29.74,,,,21,8,,0.00,,,325
2013-11-21,87,82,77,75,74,71,94,81,53,29.83,29.79,29.74,,,,16,11,,0.00,,,348
2013-11-22,86,80,73,77,75,68,100,85,62,29.86,29.79,29.74,,,,23,9,36,8.35,,,50
2013-11-23,78,75,72,75,72,70,100,90,74,29.83,29.77,29.71,,,,17,12,,0.24,,,8
2013-11-24,84,78,73,75,74,70,89,83,69,29.78,29.73,29.65,,,,22,8,,0.00,,,351
2013-11-25,86,82,77,77,74,68,89,82,69,29.71,29.66,29.62,,,,28,19,,0.04,,,318
2013-11-26,87,82,76,77,75,70,89,78,47,29.80,29.69,29.62,,,,23,17,,0.00,,,335
2013-11-27,82,79,76,77,74,72,94,83,73,29.92,29.84,29.74,,,,29,18,,0.28,,,106
2013-11-28,82,78,75,72,67,62,83,66,51,29.96,29.91,29.86,,,,25,20,,0.00,,,106
2013-11-29,84,78,73,72,65,61,83,63,47,29.92,29.86,29.77,,,,16,11,,0.01,,,34
2013-11-30,87,81,75,75,72,70,89,75,60,29.92,29.83,29.77,,,,17,9,,0.00,,,352